Time;durP1;ratioP1;P1;durP2;ratioP2;P2;SDS_P1;SDS_P2;PMS_P1;PMS_P2;Temp;Humidity;BMP_temperature;BMP_pressure;BME280_temperature;BME280_humidity;BME280_pressure;Samples;Min_cycle;Max_cycle;Signal;HPM_P1;HPM_P2
2022/05/28 00:02:07;;;;;;;10.30;2.20;;;;;;;;;;5069423;28;20086;-60
2022/05/28 00:04:33;;;;;;;8.53;2.30;;;;;;;;;;5067751;28;20041;-60
2022/05/28 00:06:59;;;;;;;9.50;1.40;;;;;;;;;;5069557;28;20049;-62
2022/05/28 00:09:25;;;;;;;8.00;1.93;;;;;;;;;;5068137;28;20090;-60
2022/05/28 00:11:51;;;;;;;8.27;1.20;;;;;;;;;;5067651;28;20052;-60
2022/05/28 00:14:17;;;;;;;7.47;1.60;;;;;;;;;;5068576;28;20047;-60
2022/05/28 00:16:46;;;;;;;5.97;1.37;;;;;;;;;;5069251;28;20059;-60
2022/05/28 00:19:12;;;;;;;8.50;1.67;;;;;;;;;;5037728;28;20056;-60
2022/05/28 00:21:38;;;;;;;10.33;2.03;;;;;;;;;;5054160;28;20032;-58
2022/05/28 00:24:04;;;;;;;9.97;1.70;;;;;;;;;;5068882;28;20049;-58
2022/05/28 00:26:30;;;;;;;10.83;2.03;;;;;;;;;;5069142;28;20044;-61
2022/05/28 00:28:56;;;;;;;14.83;2.00;;;;;;;;;;5070345;28;20040;-60
2022/05/28 00:31:22;;;;;;;9.13;1.60;;;;;;;;;;5072630;28;20491;-61
2022/05/28 00:33:49;;;;;;;19.43;2.10;;;;;;;;;;5058820;28;20051;-62
2022/05/28 00:36:15;;;;;;;18.10;2.03;;;;;;;;;;5052413;28;20407;-63
2022/05/28 00:38:42;;;;;;;9.97;1.60;;;;;;;;;;5052477;28;20048;-64
2022/05/28 00:41:08;;;;;;;10.97;2.03;;;;;;;;;;5051132;28;20057;-62
2022/05/28 00:43:34;;;;;;;10.77;2.10;;;;;;;;;;5052512;28;20131;-62
2022/05/28 00:46:26;;;;;;;9.40;1.90;;;;;;;;;;5053026;28;20048;-62
2022/05/28 00:48:55;;;;;;;6.47;1.30;;;;;;;;;;5051869;28;20574;-62
2022/05/28 00:51:23;;;;;;;3.30;0.93;;;;;;;;;;5052619;28;20171;-62
2022/05/28 00:53:49;;;;;;;5.10;1.10;;;;;;;;;;5052437;28;20041;-62
2022/05/28 00:56:15;;;;;;;9.27;1.13;;;;;;;;;;5051248;28;20045;-62
2022/05/28 00:58:42;;;;;;;6.80;1.20;;;;;;;;;;5052413;28;20049;-63
2022/05/28 01:01:09;;;;;;;8.63;1.00;;;;;;;;;;5034890;28;20055;-63
2022/05/28 01:03:37;;;;;;;7.23;1.40;;;;;;;;;;5052803;28;20044;-63
2022/05/28 01:06:08;;;;;;;11.60;1.67;;;;;;;;;;5062395;28;20078;-63
2022/05/28 01:08:52;;;;;;;9.10;1.40;;;;;;;;;;5072432;28;20070;-63
2022/05/28 01:11:31;;;;;;;9.38;1.60;;;;;;;;;;5065206;28;20127;-63
2022/05/28 01:14:16;;;;;;;7.10;1.63;;;;;;;;;;5051878;28;20075;-63
2022/05/28 01:16:53;;;;;;;11.40;1.83;;;;;;;;;;5053695;28;20087;-63
2022/05/28 01:19:31;;;;;;;7.13;1.70;;;;;;;;;;5058334;28;20041;-63
2022/05/28 01:22:08;;;;;;;5.67;1.40;;;;;;;;;;5070797;28;20372;-64
2022/05/28 01:24:53;;;;;;;9.23;1.93;;;;;;;;;;5071824;28;20051;-63
2022/05/28 01:27:22;;;;;;;7.83;2.00;;;;;;;;;;5071599;28;20040;-63
2022/05/28 01:29:49;;;;;;;9.03;1.73;;;;;;;;;;5068967;28;20451;-63
2022/05/28 01:32:17;;;;;;;11.43;3.00;;;;;;;;;;5052161;28;20044;-63
2022/05/28 01:34:43;;;;;;;11.87;1.80;;;;;;;;;;5054653;28;20136;-64
2022/05/28 01:37:10;;;;;;;10.60;2.40;;;;;;;;;;5051513;28;20048;-63
2022/05/28 01:39:37;;;;;;;12.17;2.53;;;;;;;;;;5051127;28;20111;-63
2022/05/28 01:42:06;;;;;;;11.80;1.90;;;;;;;;;;5050509;28;20053;-63
2022/05/28 01:44:32;;;;;;;10.53;2.93;;;;;;;;;;5061455;28;20506;-63
2022/05/28 01:46:58;;;;;;;22.43;2.80;;;;;;;;;;5067580;28;20037;-63
2022/05/28 01:49:25;;;;;;;15.80;3.53;;;;;;;;;;5058764;28;20044;-62
2022/05/28 01:51:54;;;;;;;18.60;3.50;;;;;;;;;;5070978;28;20670;-62
2022/05/28 01:54:24;;;;;;;15.40;3.10;;;;;;;;;;5071167;28;20132;-62
2022/05/28 01:56:52;;;;;;;14.97;2.63;;;;;;;;;;5060692;28;20049;-62
2022/05/28 01:59:20;;;;;;;11.57;2.77;;;;;;;;;;5051418;28;20548;-62
2022/05/28 02:01:46;;;;;;;17.67;3.13;;;;;;;;;;5051246;28;20049;-62
2022/05/28 02:04:13;;;;;;;14.87;3.03;;;;;;;;;;5051333;28;20662;-62
2022/05/28 02:06:39;;;;;;;19.80;3.23;;;;;;;;;;5050857;28;20499;-62
2022/05/28 02:09:08;;;;;;;14.63;2.90;;;;;;;;;;5051061;28;20539;-62
2022/05/28 02:11:53;;;;;;;10.50;2.60;;;;;;;;;;5051018;28;20594;-63
2022/05/28 02:14:22;;;;;;;14.50;2.27;;;;;;;;;;5051809;28;20151;-62
2022/05/28 02:17:05;;;;;;;13.37;3.43;;;;;;;;;;5050967;28;20048;-62
2022/05/28 02:19:43;;;;;;;17.47;3.13;;;;;;;;;;5050111;28;20060;-63
2022/05/28 02:22:20;;;;;;;13.67;3.50;;;;;;;;;;5050875;28;20387;-63
2022/05/28 02:24:49;;;;;;;18.53;3.60;;;;;;;;;;5049566;28;20052;-63
2022/05/28 02:27:17;;;;;;;12.60;2.87;;;;;;;;;;5049596;28;20418;-63
2022/05/28 02:29:44;;;;;;;12.57;2.60;;;;;;;;;;5050622;28;20045;-62
2022/05/28 02:32:14;;;;;;;10.60;2.17;;;;;;;;;;5050247;28;20048;-62
2022/05/28 02:34:40;;;;;;;19.63;2.50;;;;;;;;;;5050228;28;20051;-63
2022/05/28 02:37:07;;;;;;;9.20;2.00;;;;;;;;;;5049731;28;20674;-62
2022/05/28 02:39:33;;;;;;;19.00;3.37;;;;;;;;;;5050353;28;20095;-62
2022/05/28 02:41:59;;;;;;;14.17;2.93;;;;;;;;;;5050829;28;20053;-63
2022/05/28 02:44:25;;;;;;;15.50;2.43;;;;;;;;;;5050324;28;20063;-63
2022/05/28 02:46:51;;;;;;;18.47;4.47;;;;;;;;;;5050694;28;20461;-62
2022/05/28 02:49:18;;;;;;;14.80;3.30;;;;;;;;;;5051142;28;20045;-62
2022/05/28 02:51:44;;;;;;;17.87;3.40;;;;;;;;;;5049902;28;20095;-62
2022/05/28 02:54:10;;;;;;;8.57;2.03;;;;;;;;;;5049121;28;20080;-62
2022/05/28 02:56:36;;;;;;;15.43;3.63;;;;;;;;;;5050702;28;20071;-62
2022/05/28 02:59:02;;;;;;;16.87;3.90;;;;;;;;;;5049962;28;20049;-62
2022/05/28 03:01:33;;;;;;;11.20;2.50;;;;;;;;;;5048811;28;20049;-62
2022/05/28 03:03:59;;;;;;;21.60;3.10;;;;;;;;;;5052552;28;20060;-62
2022/05/28 03:06:26;;;;;;;19.93;4.63;;;;;;;;;;5050183;28;20053;-62
2022/05/28 03:08:52;;;;;;;18.33;4.40;;;;;;;;;;5050140;28;20041;-62
2022/05/28 03:11:18;;;;;;;17.37;3.00;;;;;;;;;;5050094;28;20557;-62
2022/05/28 03:13:45;;;;;;;17.60;2.80;;;;;;;;;;5049704;28;20707;-63
2022/05/28 03:16:11;;;;;;;19.57;2.90;;;;;;;;;;5049061;28;20534;-62
2022/05/28 03:18:37;;;;;;;12.23;2.77;;;;;;;;;;5048766;28;20049;-62
2022/05/28 03:21:04;;;;;;;18.30;2.30;;;;;;;;;;5050178;28;20040;-62
2022/05/28 03:23:30;;;;;;;21.43;3.00;;;;;;;;;;5049799;28;20041;-62
2022/05/28 03:25:56;;;;;;;16.67;2.90;;;;;;;;;;5048512;28;20049;-62
2022/05/28 03:28:22;;;;;;;17.67;3.47;;;;;;;;;;5060424;28;20091;-63
2022/05/28 03:30:48;;;;;;;11.83;2.37;;;;;;;;;;5052441;28;20426;-63
2022/05/28 03:33:14;;;;;;;14.67;3.60;;;;;;;;;;5050170;28;20127;-62
2022/05/28 03:35:40;;;;;;;16.47;3.00;;;;;;;;;;5049227;28;20127;-62
2022/05/28 03:38:07;;;;;;;16.03;3.03;;;;;;;;;;5049102;28;20123;-63
2022/05/28 03:40:34;;;;;;;18.83;3.90;;;;;;;;;;5049242;28;20586;-63
2022/05/28 03:43:00;;;;;;;14.57;2.90;;;;;;;;;;5049582;28;20553;-62
2022/05/28 03:45:27;;;;;;;16.43;2.80;;;;;;;;;;5049493;28;20088;-63
2022/05/28 03:47:54;;;;;;;14.70;3.43;;;;;;;;;;5049879;28;20045;-63
2022/05/28 03:50:20;;;;;;;13.10;2.83;;;;;;;;;;5053983;28;20049;-62
2022/05/28 03:52:46;;;;;;;17.10;4.00;;;;;;;;;;5068416;28;20044;-63
2022/05/28 03:55:13;;;;;;;10.37;2.60;;;;;;;;;;5056297;28;20073;-63
2022/05/28 03:57:39;;;;;;;16.60;3.60;;;;;;;;;;5057370;28;20090;-63
2022/05/28 04:00:05;;;;;;;15.93;2.83;;;;;;;;;;5052086;28;20048;-62
2022/05/28 04:02:32;;;;;;;10.80;2.37;;;;;;;;;;5047500;28;20153;-62
2022/05/28 04:04:58;;;;;;;16.30;2.50;;;;;;;;;;5054400;28;20037;-62
2022/05/28 04:07:24;;;;;;;12.20;2.70;;;;;;;;;;5071982;28;20051;-63
2022/05/28 04:09:50;;;;;;;15.20;2.90;;;;;;;;;;5054955;28;20073;-62
2022/05/28 04:12:16;;;;;;;17.23;3.57;;;;;;;;;;5065243;28;20080;-62
2022/05/28 04:14:43;;;;;;;20.53;3.20;;;;;;;;;;5061388;28;20118;-62
2022/05/28 04:17:09;;;;;;;12.00;2.93;;;;;;;;;;5068243;28;20072;-62
2022/05/28 04:19:35;;;;;;;18.13;3.90;;;;;;;;;;5072890;28;20087;-62
2022/05/28 04:22:01;;;;;;;16.23;2.73;;;;;;;;;;5053523;28;20052;-63
2022/05/28 04:24:27;;;;;;;11.83;3.90;;;;;;;;;;5052995;28;20037;-62
2022/05/28 04:26:53;;;;;;;17.37;3.23;;;;;;;;;;5061993;28;20067;-63
2022/05/28 04:29:19;;;;;;;21.17;2.90;;;;;;;;;;5065549;28;20395;-62
2022/05/28 04:31:45;;;;;;;20.03;3.57;;;;;;;;;;5038714;28;20056;-63
2022/05/28 04:34:11;;;;;;;14.53;3.27;;;;;;;;;;5053243;28;20037;-63
2022/05/28 04:36:37;;;;;;;13.77;3.83;;;;;;;;;;5052682;28;20044;-63
2022/05/28 04:39:04;;;;;;;17.27;3.57;;;;;;;;;;5053081;28;20037;-62
2022/05/28 04:41:30;;;;;;;12.63;2.93;;;;;;;;;;5068787;28;20064;-63
2022/05/28 04:43:56;;;;;;;21.43;3.07;;;;;;;;;;5065154;28;20040;-62
2022/05/28 04:46:22;;;;;;;19.87;3.40;;;;;;;;;;5052617;28;20084;-62
2022/05/28 04:48:48;;;;;;;19.23;4.70;;;;;;;;;;5052417;28;20037;-62
2022/05/28 04:51:14;;;;;;;16.63;3.13;;;;;;;;;;5052550;28;20144;-62
2022/05/28 04:53:40;;;;;;;15.83;3.33;;;;;;;;;;5051114;28;20051;-62
2022/05/28 04:56:06;;;;;;;17.43;3.83;;;;;;;;;;5059505;28;20049;-63
2022/05/28 04:58:32;;;;;;;20.27;3.07;;;;;;;;;;5052419;28;20041;-62
2022/05/28 05:00:58;;;;;;;14.87;2.47;;;;;;;;;;5052172;28;20472;-63
2022/05/28 05:03:24;;;;;;;20.10;3.27;;;;;;;;;;5054970;28;20403;-63
2022/05/28 05:05:50;;;;;;;18.13;2.80;;;;;;;;;;5052921;28;20049;-63
2022/05/28 05:08:16;;;;;;;17.10;3.20;;;;;;;;;;5070531;28;20102;-63
2022/05/28 05:10:44;;;;;;;16.10;3.23;;;;;;;;;;5055838;28;20486;-63
2022/05/28 05:13:11;;;;;;;13.93;3.40;;;;;;;;;;5060569;28;20163;-62
2022/05/28 05:15:38;;;;;;;15.63;2.57;;;;;;;;;;5053414;28;20441;-63
2022/05/28 05:18:04;;;;;;;16.60;4.00;;;;;;;;;;5053375;28;20453;-62
2022/05/28 05:20:30;;;;;;;12.57;2.67;;;;;;;;;;5051366;28;20127;-63
2022/05/28 05:22:56;;;;;;;15.00;2.80;;;;;;;;;;5052466;28;20422;-63
2022/05/28 05:25:23;;;;;;;15.50;2.50;;;;;;;;;;5050376;28;20041;-63
2022/05/28 05:27:49;;;;;;;20.03;3.00;;;;;;;;;;5051936;28;20052;-63
2022/05/28 05:30:16;;;;;;;13.93;2.30;;;;;;;;;;5054978;28;20045;-63
2022/05/28 05:32:42;;;;;;;15.03;3.40;;;;;;;;;;5051579;28;20041;-63
2022/05/28 05:35:08;;;;;;;9.90;2.83;;;;;;;;;;5053507;28;20049;-62
2022/05/28 05:37:34;;;;;;;23.43;4.47;;;;;;;;;;5050318;28;20052;-63
2022/05/28 05:40:00;;;;;;;17.93;3.13;;;;;;;;;;5050840;28;20053;-63
2022/05/28 05:42:26;;;;;;;19.97;3.20;;;;;;;;;;5051263;28;20586;-63
2022/05/28 05:44:53;;;;;;;22.80;4.40;;;;;;;;;;5051709;28;20151;-63
2022/05/28 05:47:20;;;;;;;14.77;2.93;;;;;;;;;;5051013;28;20044;-63
2022/05/28 05:49:46;;;;;;;37.93;4.43;;;;;;;;;;5049748;28;20060;-62
2022/05/28 05:52:12;;;;;;;17.43;2.50;;;;;;;;;;5049761;28;20061;-62
2022/05/28 05:54:38;;;;;;;15.33;4.10;;;;;;;;;;5051752;28;20049;-63
2022/05/28 05:57:04;;;;;;;13.60;3.37;;;;;;;;;;5058229;28;20055;-62
2022/05/28 05:59:30;;;;;;;17.73;3.47;;;;;;;;;;5063788;28;20056;-62
2022/05/28 06:01:56;;;;;;;16.87;3.03;;;;;;;;;;5056804;28;20499;-63
2022/05/28 06:04:22;;;;;;;14.30;2.60;;;;;;;;;;5058167;28;20041;-63
2022/05/28 06:06:48;;;;;;;13.13;2.70;;;;;;;;;;5051495;28;20049;-63
2022/05/28 06:09:14;;;;;;;10.10;2.30;;;;;;;;;;5061164;28;20049;-63
2022/05/28 06:11:40;;;;;;;18.30;2.77;;;;;;;;;;5063369;28;20558;-63
2022/05/28 06:14:06;;;;;;;19.47;4.47;;;;;;;;;;5059554;28;20090;-63
2022/05/28 06:16:32;;;;;;;16.23;2.63;;;;;;;;;;5071046;28;20040;-63
2022/05/28 06:18:58;;;;;;;9.67;2.43;;;;;;;;;;5065245;28;20119;-63
2022/05/28 06:21:25;;;;;;;20.00;2.77;;;;;;;;;;5054281;28;20041;-63
2022/05/28 06:23:52;;;;;;;19.13;2.83;;;;;;;;;;5060564;28;20088;-63
2022/05/28 06:26:18;;;;;;;15.60;2.90;;;;;;;;;;5059322;28;20147;-63
2022/05/28 06:28:44;;;;;;;12.63;2.77;;;;;;;;;;5052749;28;20080;-64
2022/05/28 06:31:11;;;;;;;15.97;3.10;;;;;;;;;;5053186;28;20044;-63
2022/05/28 06:33:38;;;;;;;23.50;3.07;;;;;;;;;;5054211;28;20533;-63
2022/05/28 06:36:05;;;;;;;16.03;2.73;;;;;;;;;;5051079;28;20091;-63
2022/05/28 06:38:31;;;;;;;16.67;3.20;;;;;;;;;;5062004;28;20047;-63
2022/05/28 06:40:58;;;;;;;19.47;2.80;;;;;;;;;;5068554;28;20053;-64
2022/05/28 06:43:24;;;;;;;15.07;3.43;;;;;;;;;;5061349;28;20052;-64
2022/05/28 06:45:50;;;;;;;9.97;2.90;;;;;;;;;;5068000;28;20045;-64
2022/05/28 06:48:16;;;;;;;13.43;2.60;;;;;;;;;;5067321;28;20048;-63
2022/05/28 06:51:01;;;;;;;19.40;3.43;;;;;;;;;;5054530;28;20044;-63
2022/05/28 06:53:28;;;;;;;14.87;3.33;;;;;;;;;;5051546;28;20057;-63
2022/05/28 06:55:54;;;;;;;14.63;2.80;;;;;;;;;;5049997;28;20582;-63
2022/05/28 06:58:20;;;;;;;13.70;2.30;;;;;;;;;;5048374;28;20132;-63
2022/05/28 07:00:46;;;;;;;16.43;2.63;;;;;;;;;;5048026;28;20045;-63
2022/05/28 07:03:13;;;;;;;15.43;2.83;;;;;;;;;;5046831;28;20495;-63
2022/05/28 07:05:39;;;;;;;18.07;3.60;;;;;;;;;;5048625;28;20040;-63
2022/05/28 07:08:05;;;;;;;14.37;3.00;;;;;;;;;;5047831;28;20174;-63
2022/05/28 07:10:31;;;;;;;16.90;3.53;;;;;;;;;;5053951;28;20044;-63
2022/05/28 07:12:57;;;;;;;13.60;3.63;;;;;;;;;;5069234;28;20129;-63
2022/05/28 07:15:24;;;;;;;24.27;3.67;;;;;;;;;;5069911;28;20048;-63
2022/05/28 07:17:50;;;;;;;18.37;2.77;;;;;;;;;;5056153;28;20041;-63
2022/05/28 07:20:16;;;;;;;15.53;2.83;;;;;;;;;;5054932;28;20044;-63
2022/05/28 07:22:42;;;;;;;15.33;2.80;;;;;;;;;;5069499;28;20047;-63
2022/05/28 07:25:09;;;;;;;16.67;2.83;;;;;;;;;;5069569;28;20090;-63
2022/05/28 07:27:35;;;;;;;19.80;2.80;;;;;;;;;;5068978;28;20049;-63
2022/05/28 07:30:01;;;;;;;15.40;2.63;;;;;;;;;;5069850;28;20051;-63
2022/05/28 07:32:30;;;;;;;15.27;3.30;;;;;;;;;;5069053;28;20098;-62
2022/05/28 07:34:57;;;;;;;18.00;3.13;;;;;;;;;;5057983;28;20045;-63
2022/05/28 07:37:23;;;;;;;18.33;3.00;;;;;;;;;;5049143;28;20448;-63
2022/05/28 07:39:49;;;;;;;13.57;2.63;;;;;;;;;;5046955;28;20053;-63
2022/05/28 07:42:15;;;;;;;16.40;2.70;;;;;;;;;;5049642;28;20522;-63
2022/05/28 07:44:41;;;;;;;10.67;2.97;;;;;;;;;;5047716;28;20045;-63
2022/05/28 07:47:08;;;;;;;16.60;2.77;;;;;;;;;;5049326;28;20118;-63
2022/05/28 07:49:38;;;;;;;18.90;2.83;;;;;;;;;;5059801;28;20047;-62
2022/05/28 07:52:04;;;;;;;11.47;2.40;;;;;;;;;;5069513;28;20080;-62
2022/05/28 07:54:30;;;;;;;13.93;2.77;;;;;;;;;;5067925;28;20037;-63
2022/05/28 07:56:56;;;;;;;13.33;3.03;;;;;;;;;;5069377;28;20545;-62
2022/05/28 07:59:23;;;;;;;12.60;2.53;;;;;;;;;;5051597;28;20041;-63
2022/05/28 08:01:49;;;;;;;13.07;2.30;;;;;;;;;;5048230;28;20049;-62
2022/05/28 08:04:15;;;;;;;16.73;2.57;;;;;;;;;;5049070;28;20052;-62
2022/05/28 08:06:41;;;;;;;15.10;2.60;;;;;;;;;;5048138;28;20052;-62
2022/05/28 08:09:07;;;;;;;9.27;2.07;;;;;;;;;;5060729;28;20127;-63
2022/05/28 08:11:34;;;;;;;17.00;2.47;;;;;;;;;;5069047;28;20098;-62
2022/05/28 08:14:00;;;;;;;15.90;3.67;;;;;;;;;;5069336;28;20040;-63
2022/05/28 08:16:26;;;;;;;10.03;2.23;;;;;;;;;;5069079;28;20037;-62
2022/05/28 08:18:52;;;;;;;11.70;2.90;;;;;;;;;;5069243;28;20041;-63
2022/05/28 08:24:03;;;;;;;9.37;2.40;;;;;;;;;;5048774;28;20068;-63
2022/05/28 08:26:29;;;;;;;12.87;2.57;;;;;;;;;;5047067;28;20392;-62
2022/05/28 08:28:56;;;;;;;12.57;2.10;;;;;;;;;;5048938;28;20122;-62
2022/05/28 08:31:22;;;;;;;13.40;3.17;;;;;;;;;;5048750;28;20532;-62
2022/05/28 08:33:49;;;;;;;14.60;2.80;;;;;;;;;;5053376;28;20056;-62
2022/05/28 08:36:15;;;;;;;14.77;2.80;;;;;;;;;;5069171;28;20040;-62
2022/05/28 08:38:41;;;;;;;9.10;1.97;;;;;;;;;;5068599;28;20516;-62
2022/05/28 08:41:12;;;;;;;10.07;3.20;;;;;;;;;;5064139;28;20404;-62
2022/05/28 08:43:40;;;;;;;13.03;2.43;;;;;;;;;;5049114;28;20594;-62
2022/05/28 08:46:09;;;;;;;10.37;2.10;;;;;;;;;;5049291;28;20045;-62
2022/05/28 08:48:40;;;;;;;15.27;3.07;;;;;;;;;;5047890;28;20413;-62
2022/05/28 08:51:09;;;;;;;10.60;2.40;;;;;;;;;;5051769;28;20045;-62
2022/05/28 08:53:38;;;;;;;9.97;2.53;;;;;;;;;;5052379;28;20393;-62
2022/05/28 08:56:05;;;;;;;11.03;2.53;;;;;;;;;;5052607;28;20095;-62
2022/05/28 08:58:33;;;;;;;18.07;3.00;;;;;;;;;;5051706;28;20131;-62
2022/05/28 09:01:03;;;;;;;12.03;2.93;;;;;;;;;;5052535;28;20041;-61
2022/05/28 09:03:29;;;;;;;10.30;2.40;;;;;;;;;;5066598;28;20613;-62
2022/05/28 09:05:59;;;;;;;16.10;3.00;;;;;;;;;;5071065;28;20131;-62
2022/05/28 09:08:30;;;;;;;9.20;2.10;;;;;;;;;;5071746;28;20051;-62
2022/05/28 09:10:57;;;;;;;14.63;2.43;;;;;;;;;;5071779;28;20052;-62
2022/05/28 09:13:27;;;;;;;14.37;3.50;;;;;;;;;;5053025;28;20045;-62
2022/05/28 09:15:53;;;;;;;10.93;2.30;;;;;;;;;;5052049;28;20455;-62
2022/05/28 09:18:20;;;;;;;17.87;2.70;;;;;;;;;;5055664;28;20048;-62
2022/05/28 09:20:48;;;;;;;7.97;2.03;;;;;;;;;;5053154;28;20081;-62
2022/05/28 09:23:14;;;;;;;11.17;2.53;;;;;;;;;;5052121;28;20037;-61
2022/05/28 09:25:43;;;;;;;14.87;2.63;;;;;;;;;;5051967;28;20033;-61
2022/05/28 09:28:27;;;;;;;14.07;2.60;;;;;;;;;;5066208;28;20690;-61
2022/05/28 09:30:53;;;;;;;11.43;2.30;;;;;;;;;;5062105;28;20144;-61
2022/05/28 09:33:25;;;;;;;11.73;2.47;;;;;;;;;;5054664;28;20477;-61
2022/05/28 09:36:03;;;;;;;12.17;2.80;;;;;;;;;;5053469;28;20045;-61
2022/05/28 09:38:44;;;;;;;8.93;2.10;;;;;;;;;;5063814;28;20123;-61
2022/05/28 09:41:13;;;;;;;11.03;2.60;;;;;;;;;;5051351;28;20041;-62
2022/05/28 09:43:58;;;;;;;11.60;2.47;;;;;;;;;;5053508;28;20131;-61
2022/05/28 09:46:36;;;;;;;9.37;1.90;;;;;;;;;;5051481;28;20667;-61
2022/05/28 09:49:10;;;;;;;13.57;2.60;;;;;;;;;;5051668;28;20511;-61
2022/05/28 09:51:36;;;;;;;10.10;2.30;;;;;;;;;;5051008;28;20040;-61
2022/05/28 09:54:17;;;;;;;6.00;1.57;;;;;;;;;;5051303;28;20487;-61
2022/05/28 09:56:44;;;;;;;6.73;1.93;;;;;;;;;;5051463;28;20120;-61
2022/05/28 09:59:22;;;;;;;7.77;2.27;;;;;;;;;;5065504;28;20044;-61
2022/05/28 10:01:56;;;;;;;9.03;2.13;;;;;;;;;;5069837;28;20081;-61
2022/05/28 10:04:29;;;;;;;6.53;1.83;;;;;;;;;;5059736;28;20048;-61
2022/05/28 10:06:56;;;;;;;13.70;2.72;;;;;;;;;;5053955;28;20502;-61
2022/05/28 10:09:34;;;;;;;8.47;2.10;;;;;;;;;;5071119;28;20133;-61
2022/05/28 10:12:02;;;;;;;15.37;2.43;;;;;;;;;;5070885;28;20040;-61
2022/05/28 10:14:29;;;;;;;10.60;2.33;;;;;;;;;;5066141;28;20056;-61
2022/05/28 10:17:01;;;;;;;10.30;2.73;;;;;;;;;;5069839;28;20109;-60
2022/05/28 10:19:32;;;;;;;12.53;2.60;;;;;;;;;;5070262;28;20047;-61
2022/05/28 10:22:00;;;;;;;9.67;2.00;;;;;;;;;;5070567;28;20150;-61
2022/05/28 10:24:28;;;;;;;8.40;2.03;;;;;;;;;;5070374;28;20052;-60
2022/05/28 10:26:56;;;;;;;12.90;2.50;;;;;;;;;;5070671;28;20146;-60
2022/05/28 10:29:29;;;;;;;10.93;2.20;;;;;;;;;;5060008;28;20041;-60
2022/05/28 10:31:57;;;;;;;8.33;2.10;;;;;;;;;;5050274;28;20055;-60
2022/05/28 10:34:29;;;;;;;11.97;2.10;;;;;;;;;;5050456;28;20087;-61
2022/05/28 10:37:05;;;;;;;9.87;1.87;;;;;;;;;;5050555;28;20048;-61
2022/05/28 10:39:31;;;;;;;8.10;2.10;;;;;;;;;;5049534;28;20059;-62
2022/05/28 10:41:57;;;;;;;11.07;2.20;;;;;;;;;;5050073;28;20604;-62
2022/05/28 10:44:24;;;;;;;9.80;2.80;;;;;;;;;;5050053;28;20041;-62
2022/05/28 10:46:56;;;;;;;9.20;1.77;;;;;;;;;;5049748;28;20048;-62
2022/05/28 10:49:45;;;;;;;5.37;1.37;;;;;;;;;;5050463;28;20048;-62
2022/05/28 10:52:29;;;;;;;8.60;1.70;;;;;;;;;;5048739;28;20067;-62
2022/05/28 10:54:56;;;;;;;9.67;2.43;;;;;;;;;;5048502;28;20060;-61
2022/05/28 10:57:22;;;;;;;9.57;2.03;;;;;;;;;;5050486;28;20187;-61
2022/05/28 11:00:01;;;;;;;10.40;2.67;;;;;;;;;;5049731;28;20049;-62
2022/05/28 11:02:36;;;;;;;9.13;2.03;;;;;;;;;;5049996;28;20048;-62
2022/05/28 11:05:08;;;;;;;8.97;3.03;;;;;;;;;;5050910;28;20055;-62
2022/05/28 11:07:48;;;;;;;6.65;1.70;;;;;;;;;;5049580;28;21074;-62
2022/05/28 11:10:14;;;;;;;8.50;2.23;;;;;;;;;;5049435;28;20124;-61
2022/05/28 11:12:40;;;;;;;8.70;1.87;;;;;;;;;;5049374;28;20470;-61
2022/05/28 11:15:10;;;;;;;14.23;2.97;;;;;;;;;;5048842;28;20041;-62
2022/05/28 11:17:36;;;;;;;9.03;1.80;;;;;;;;;;5049670;28;20090;-61
2022/05/28 11:20:05;;;;;;;9.73;2.47;;;;;;;;;;5049496;28;20044;-61
2022/05/28 11:22:34;;;;;;;11.47;2.47;;;;;;;;;;5049528;28;20141;-61
2022/05/28 11:25:09;;;;;;;11.50;3.03;;;;;;;;;;5049386;28;20091;-61
2022/05/28 11:27:44;;;;;;;11.00;2.03;;;;;;;;;;5049615;28;20098;-61
2022/05/28 11:30:16;;;;;;;7.77;2.20;;;;;;;;;;5049616;28;20044;-61
2022/05/28 11:32:48;;;;;;;11.63;1.97;;;;;;;;;;5048102;28;20131;-61
2022/05/28 11:35:16;;;;;;;8.37;1.93;;;;;;;;;;5069019;28;20063;-61
2022/05/28 11:37:50;;;;;;;11.67;2.43;;;;;;;;;;5067368;28;20080;-61
2022/05/28 11:40:19;;;;;;;6.03;1.93;;;;;;;;;;5064312;28;20493;-64
2022/05/28 11:42:56;;;;;;;7.73;1.83;;;;;;;;;;5049038;28;20406;-62
2022/05/28 11:45:36;;;;;;;10.73;1.87;;;;;;;;;;5048794;28;20098;-60
2022/05/28 11:48:08;;;;;;;8.70;2.07;;;;;;;;;;5049285;28;20095;-62
2022/05/28 11:53:31;;;;;;;9.40;2.30;;;;;;;;;;5068843;28;20044;-62
2022/05/28 11:56:01;;;;;;;8.80;2.47;;;;;;;;;;5068670;28;20048;-62
2022/05/28 11:58:37;;;;;;;12.80;3.27;;;;;;;;;;5069398;28;20051;-62
2022/05/28 12:01:08;;;;;;;14.97;3.20;;;;;;;;;;5069562;28;20067;-62
2022/05/28 12:03:34;;;;;;;12.87;2.63;;;;;;;;;;5067138;28;20070;-62
2022/05/28 12:06:04;;;;;;;11.10;1.90;;;;;;;;;;5068010;28;20049;-62
2022/05/28 12:08:39;;;;;;;13.83;2.60;;;;;;;;;;5069314;28;20052;-62
2022/05/28 12:11:07;;;;;;;13.50;2.97;;;;;;;;;;5069327;28;20425;-62
2022/05/28 12:13:43;;;;;;;8.50;2.70;;;;;;;;;;5068178;28;20477;-61
2022/05/28 12:16:12;;;;;;;12.00;2.63;;;;;;;;;;5069066;28;20058;-61
2022/05/28 12:18:40;;;;;;;8.63;2.03;;;;;;;;;;5068481;28;20132;-61
2022/05/28 12:21:05;;;;;;;8.57;1.80;;;;;;;;;;5069093;28;20110;-62
2022/05/28 12:23:37;;;;;;;7.33;1.70;;;;;;;;;;5064971;28;20048;-61
2022/05/28 12:26:05;;;;;;;8.90;2.03;;;;;;;;;;5052618;28;20067;-61
2022/05/28 12:28:43;;;;;;;8.10;1.70;;;;;;;;;;5057418;28;20072;-61
2022/05/28 12:31:21;;;;;;;9.50;2.30;;;;;;;;;;5069168;28;20453;-61
2022/05/28 12:33:52;;;;;;;12.63;2.77;;;;;;;;;;5052389;28;20454;-61
2022/05/28 12:36:21;;;;;;;7.97;2.00;;;;;;;;;;5052730;28;20098;-61
2022/05/28 12:39:06;;;;;;;12.80;2.43;;;;;;;;;;5064034;28;20047;-61
2022/05/28 12:41:37;;;;;;;10.93;2.00;;;;;;;;;;5062372;28;20063;-61
2022/05/28 12:44:24;;;;;;;9.43;2.60;;;;;;;;;;5052052;28;20049;-61
2022/05/28 12:46:50;;;;;;;7.53;2.37;;;;;;;;;;5052052;28;20526;-61
2022/05/28 12:49:35;;;;;;;8.43;1.97;;;;;;;;;;5054511;28;20048;-61
2022/05/28 12:52:19;;;;;;;11.00;2.37;;;;;;;;;;5071607;28;20414;-61
2022/05/28 12:54:48;;;;;;;11.80;3.60;;;;;;;;;;5052006;28;20764;-61
2022/05/28 12:57:14;;;;;;;6.70;2.00;;;;;;;;;;5052318;28;20048;-61
2022/05/28 12:59:44;;;;;;;12.13;2.50;;;;;;;;;;5071659;28;20044;-61
2022/05/28 13:02:16;;;;;;;15.83;2.90;;;;;;;;;;5071139;28;20086;-61
2022/05/28 13:04:44;;;;;;;11.90;2.30;;;;;;;;;;5069432;28;20216;-61
2022/05/28 13:07:19;;;;;;;11.57;2.33;;;;;;;;;;5058149;28;20036;-61
2022/05/28 13:09:45;;;;;;;10.10;2.57;;;;;;;;;;5071417;28;20047;-62
2022/05/28 13:12:11;;;;;;;11.77;2.07;;;;;;;;;;5071883;28;20048;-60
2022/05/28 13:14:43;;;;;;;9.23;2.30;;;;;;;;;;5053606;28;20186;-59
2022/05/28 13:17:28;;;;;;;13.20;2.00;;;;;;;;;;5063640;28;20052;-60
2022/05/28 13:20:00;;;;;;;6.47;1.88;;;;;;;;;;5071813;28;20294;-60
2022/05/28 13:22:41;;;;;;;6.90;1.73;;;;;;;;;;5060420;28;20045;-60
2022/05/28 13:25:11;;;;;;;5.70;1.80;;;;;;;;;;5071772;28;20314;-60
2022/05/28 13:27:53;;;;;;;8.63;2.30;;;;;;;;;;5071965;28;20576;-60
2022/05/28 13:30:19;;;;;;;8.75;2.20;;;;;;;;;;5071886;28;20044;-60
2022/05/28 13:32:50;;;;;;;9.75;2.47;;;;;;;;;;5071385;28;20693;-60
2022/05/28 13:35:17;;;;;;;11.15;2.53;;;;;;;;;;5070698;28;20051;-59
2022/05/28 13:37:46;;;;;;;9.25;1.80;;;;;;;;;;5058815;28;20050;-60
2022/05/28 13:40:23;;;;;;;6.30;2.00;;;;;;;;;;5051211;28;20068;-59
2022/05/28 13:42:49;;;;;;;10.18;2.50;;;;;;;;;;5050824;28;20056;-59
2022/05/28 13:45:21;;;;;;;6.57;2.10;;;;;;;;;;5049476;28;20060;-60
2022/05/28 13:47:47;;;;;;;6.93;2.20;;;;;;;;;;5050772;28;20045;-60
2022/05/28 13:50:13;;;;;;;7.13;1.52;;;;;;;;;;5051205;28;20052;-59
2022/05/28 13:52:44;;;;;;;6.70;1.90;;;;;;;;;;5050912;28;20045;-59
2022/05/28 13:55:10;;;;;;;17.63;2.10;;;;;;;;;;5050049;28;20081;-59
2022/05/28 13:57:39;;;;;;;6.05;2.47;;;;;;;;;;5050702;28;20045;-59
2022/05/28 14:00:07;;;;;;;7.68;2.40;;;;;;;;;;5050676;28;20491;-59
2022/05/28 14:02:34;;;;;;;6.35;1.80;;;;;;;;;;5050821;28;20084;-59
2022/05/28 14:05:00;;;;;;;4.80;1.60;;;;;;;;;;5050946;28;20106;-61
2022/05/28 14:07:34;;;;;;;10.57;2.20;;;;;;;;;;5050786;28;20041;-59
2022/05/28 14:10:01;;;;;;;6.80;1.80;;;;;;;;;;5051019;28;20099;-59
2022/05/28 14:12:30;;;;;;;8.52;1.77;;;;;;;;;;5050337;28;20060;-59
2022/05/28 14:14:56;;;;;;;6.53;1.85;;;;;;;;;;5049777;28;20045;-59
2022/05/28 14:17:28;;;;;;;10.18;2.05;;;;;;;;;;5050710;28;20457;-61
2022/05/28 14:19:58;;;;;;;6.00;1.70;;;;;;;;;;5050824;28;20041;-61
2022/05/28 14:22:32;;;;;;;7.70;1.60;;;;;;;;;;5051001;28;20132;-61
2022/05/28 14:24:59;;;;;;;6.65;1.70;;;;;;;;;;5049328;28;20480;-61
2022/05/28 14:27:26;;;;;;;5.78;1.30;;;;;;;;;;5050834;28;20415;-61
2022/05/28 14:29:52;;;;;;;8.45;1.77;;;;;;;;;;5050870;28;20114;-61
2022/05/28 14:32:22;;;;;;;8.25;1.73;;;;;;;;;;5050389;28;20049;-61
2022/05/28 14:34:49;;;;;;;10.38;1.63;;;;;;;;;;5050518;28;20052;-61
2022/05/28 14:37:26;;;;;;;5.77;1.37;;;;;;;;;;5048796;28;21015;-59
2022/05/28 14:39:52;;;;;;;8.52;1.42;;;;;;;;;;5050365;28;20604;-59
2022/05/28 14:42:39;;;;;;;5.90;1.90;;;;;;;;;;5050105;28;20534;-59
2022/05/28 14:45:19;;;;;;;5.67;1.67;;;;;;;;;;5062362;28;20472;-60
2022/05/28 14:47:50;;;;;;;9.97;2.03;;;;;;;;;;5069634;28;20722;-59
2022/05/28 14:50:25;;;;;;;9.97;2.60;;;;;;;;;;5070148;28;20135;-59